Time;durP1;ratioP1;P1;durP2;ratioP2;P2;SDS_P1;SDS_P2;PMS_P1;PMS_P2;Temp;Humidity;BMP_temperature;BMP_pressure;BME280_temperature;BME280_humidity;BME280_pressure;Samples;Min_cycle;Max_cycle;Signal;HPM_P1;HPM_P2
2022/10/19 00:01:43;;;;;;;9.23;2.90;;;;;;;;;;6185998;23;20029;-84
2022/10/19 00:04:14;;;;;;;6.57;2.80;;;;;;;;;;6183108;23;21035;-85
2022/10/19 00:06:44;;;;;;;8.40;3.30;;;;;;;;;;6185783;23;20057;-84
2022/10/19 00:09:17;;;;;;;9.43;2.15;;;;;;;;;;6187561;23;20033;-84
2022/10/19 00:11:59;;;;;;;3.25;1.98;;;;;;;;;;6158498;23;20022;-85
2022/10/19 00:14:33;;;;;;;4.90;2.08;;;;;;;;;;6188658;23;20657;-85
2022/10/19 00:17:23;;;;;;;4.55;1.98;;;;;;;;;;6165613;23;20496;-84
2022/10/19 00:19:53;;;;;;;6.80;2.80;;;;;;;;;;6188179;23;20045;-84
2022/10/19 00:22:50;;;;;;;5.15;2.65;;;;;;;;;;6186643;23;20398;-85
2022/10/19 00:25:42;;;;;;;2.88;1.83;;;;;;;;;;6163312;23;20045;-84
2022/10/19 00:28:36;;;;;;;4.85;2.50;;;;;;;;;;6189051;23;20033;-84
2022/10/19 00:31:06;;;;;;;3.75;1.90;;;;;;;;;;6189288;23;20060;-84
2022/10/19 00:33:39;;;;;;;3.55;2.10;;;;;;;;;;6189188;23;20022;-84
2022/10/19 00:36:31;;;;;;;2.78;1.70;;;;;;;;;;6135253;23;20029;-84
2022/10/19 00:39:18;;;;;;;4.25;2.25;;;;;;;;;;6185007;23;20112;-83
2022/10/19 00:41:53;;;;;;;3.90;1.95;;;;;;;;;;6188864;23;20723;-86
2022/10/19 00:44:42;;;;;;;5.15;2.28;;;;;;;;;;6189558;23;20028;-84
2022/10/19 00:47:23;;;;;;;3.38;2.00;;;;;;;;;;6157819;23;20018;-84
2022/10/19 00:49:53;;;;;;;4.90;2.50;;;;;;;;;;6163409;23;20475;-84
2022/10/19 00:52:29;;;;;;;4.38;2.45;;;;;;;;;;6186988;23;20029;-84
2022/10/19 00:55:02;;;;;;;6.10;2.30;;;;;;;;;;6189297;23;20512;-84
2022/10/19 00:57:35;;;;;;;3.22;2.13;;;;;;;;;;6186634;23;20029;-86
2022/10/19 01:00:14;;;;;;;7.00;1.88;;;;;;;;;;6159981;23;20468;-83
2022/10/19 01:02:42;;;;;;;2.45;1.95;;;;;;;;;;6187123;23;20028;-84
2022/10/19 01:05:15;;;;;;;3.65;1.95;;;;;;;;;;6187184;23;20084;-84
2022/10/19 01:07:57;;;;;;;2.38;1.65;;;;;;;;;;6187572;23;20843;-84
2022/10/19 01:10:45;;;;;;;3.55;1.83;;;;;;;;;;6187922;23;20049;-84
2022/10/19 01:13:31;;;;;;;4.28;2.17;;;;;;;;;;6184462;23;20033;-86
2022/10/19 01:16:02;;;;;;;4.20;2.15;;;;;;;;;;6186039;23;20029;-84
2022/10/19 01:19:02;;;;;;;6.93;2.22;;;;;;;;;;6093958;23;20082;-85
2022/10/19 01:22:05;;;;;;;2.45;1.60;;;;;;;;;;6111326;23;20453;-84
2022/10/19 01:24:52;;;;;;;3.92;2.30;;;;;;;;;;6124169;23;20043;-84
2022/10/19 01:27:44;;;;;;;3.58;2.03;;;;;;;;;;6124466;23;20026;-83
2022/10/19 01:30:40;;;;;;;1.55;1.45;;;;;;;;;;6122850;23;20458;-83
2022/10/19 01:33:33;;;;;;;3.03;1.88;;;;;;;;;;6100512;23;20060;-84
2022/10/19 01:36:20;;;;;;;3.03;1.70;;;;;;;;;;6122284;23;20050;-84
2022/10/19 01:39:00;;;;;;;5.13;1.98;;;;;;;;;;6122350;23;20027;-84
2022/10/19 01:41:57;;;;;;;4.45;1.60;;;;;;;;;;6124158;23;20028;-84
2022/10/19 01:44:32;;;;;;;1.83;1.48;;;;;;;;;;6121545;23;20027;-84
2022/10/19 01:47:06;;;;;;;1.17;1.10;;;;;;;;;;6123491;23;20470;-84
2022/10/19 01:49:58;;;;;;;1.40;1.10;;;;;;;;;;6136196;23;20027;-84
2022/10/19 01:52:35;;;;;;;1.38;1.08;;;;;;;;;;6185860;23;20030;-84
2022/10/19 01:55:18;;;;;;;1.70;1.15;;;;;;;;;;6180242;23;20040;-84
2022/10/19 01:57:52;;;;;;;2.83;1.33;;;;;;;;;;6184014;23;20029;-84
2022/10/19 02:00:21;;;;;;;2.47;1.25;;;;;;;;;;6185222;23;20879;-84
2022/10/19 02:02:56;;;;;;;2.70;1.85;;;;;;;;;;6185394;23;20074;-84
2022/10/19 02:05:47;;;;;;;2.17;0.98;;;;;;;;;;6185774;23;20145;-84
2022/10/19 02:08:34;;;;;;;1.40;1.30;;;;;;;;;;6185170;23;20033;-84
2022/10/19 02:11:02;;;;;;;;;;;;;;;;;;6183793;23;20265;-84
2022/10/19 02:13:40;;;;;;;1.58;1.15;;;;;;;;;;6182603;23;44311;-84
2022/10/19 02:16:17;;;;;;;1.00;0.98;;;;;;;;;;6186031;23;20891;-84
2022/10/19 02:18:54;;;;;;;4.93;1.42;;;;;;;;;;6184622;23;20104;-83
2022/10/19 02:21:34;;;;;;;;;;;;;;;;;;;;;
2022/10/19 02:24:06;;;;;;;10.30;1.10;;;;;;;;;;6185832;23;20046;-84
2022/10/19 02:26:38;;;;;;;2.67;1.80;;;;;;;;;;6185371;23;20030;-84
2022/10/19 02:29:10;;;;;;;2.75;1.48;;;;;;;;;;6185019;23;20033;-84
2022/10/19 02:31:40;;;;;;;9.38;2.13;;;;;;;;;;6184897;23;20547;-84
2022/10/19 02:34:25;;;;;;;3.00;1.83;;;;;;;;;;6143619;23;20453;-85
2022/10/19 02:37:06;;;;;;;2.90;1.48;;;;;;;;;;6181143;23;21415;-84
2022/10/19 02:39:35;;;;;;;2.95;2.03;;;;;;;;;;6185864;23;20029;-85
2022/10/19 02:42:19;;;;;;;2.13;1.50;;;;;;;;;;6185809;23;20029;-84
2022/10/19 02:44:59;;;;;;;2.15;1.42;;;;;;;;;;6182665;23;20056;-87
2022/10/19 02:47:41;;;;;;;6.30;2.15;;;;;;;;;;6185465;23;20914;-84
2022/10/19 02:50:10;;;;;;;4.95;2.47;;;;;;;;;;6186438;23;20034;-84
2022/10/19 02:52:40;;;;;;;2.63;1.75;;;;;;;;;;6185154;23;20598;-83
2022/10/19 02:55:10;;;;;;;2.38;1.50;;;;;;;;;;6136847;23;20080;-85
2022/10/19 02:57:47;;;;;;;2.72;1.65;;;;;;;;;;6185727;23;20195;-84
2022/10/19 03:00:15;;;;;;;3.85;1.70;;;;;;;;;;6184544;23;20328;-84
2022/10/19 03:02:50;;;;;;;2.58;1.63;;;;;;;;;;6185168;23;20030;-83
2022/10/19 03:05:19;;;;;;;6.68;1.77;;;;;;;;;;6186776;23;20017;-84
2022/10/19 03:07:58;;;;;;;6.63;2.10;;;;;;;;;;6185686;23;20030;-83
2022/10/19 03:10:28;;;;;;;5.40;1.80;;;;;;;;;;6184869;23;20008;-84
2022/10/19 03:12:58;;;;;;;4.82;1.98;;;;;;;;;;6185607;23;20112;-83
2022/10/19 03:15:46;;;;;;;;;;;;;;;;;;;;;
2022/10/19 03:18:20;;;;;;;3.25;1.80;;;;;;;;;;6189485;23;20566;-84
2022/10/19 03:20:51;;;;;;;3.85;2.20;;;;;;;;;;6190409;23;20084;-84
2022/10/19 03:23:20;;;;;;;21.23;2.22;;;;;;;;;;6189443;23;20750;-84
2022/10/19 03:25:48;;;;;;;2.75;1.92;;;;;;;;;;6190277;23;20018;-84
2022/10/19 03:28:25;;;;;;;6.40;2.10;;;;;;;;;;6190049;23;20028;-84
2022/10/19 03:30:56;;;;;;;6.45;1.70;;;;;;;;;;6189454;23;20036;-84
2022/10/19 03:33:26;;;;;;;2.65;1.52;;;;;;;;;;6191049;23;20100;-84
2022/10/19 03:36:13;;;;;;;4.88;2.50;;;;;;;;;;6161712;23;20088;-84
2022/10/19 03:39:09;;;;;;;7.25;1.85;;;;;;;;;;6184471;23;20107;-84
2022/10/19 03:41:42;;;;;;;2.40;1.50;;;;;;;;;;6187373;23;20081;-84
2022/10/19 03:44:40;;;;;;;3.80;2.28;;;;;;;;;;6160724;23;20053;-83
2022/10/19 03:50:12;;;;;;;3.15;1.83;;;;;;;;;;6188681;23;20017;-84
2022/10/19 03:52:45;;;;;;;3.53;1.90;;;;;;;;;;6188012;23;20033;-84
2022/10/19 03:55:15;;;;;;;2.38;1.70;;;;;;;;;;6187770;23;20233;-84
2022/10/19 03:57:47;;;;;;;2.05;1.70;;;;;;;;;;6187217;23;20033;-84
2022/10/19 04:00:18;;;;;;;3.63;1.98;;;;;;;;;;6189214;23;20045;-84
2022/10/19 04:02:47;;;;;;;3.88;1.95;;;;;;;;;;6188798;23;20017;-83
2022/10/19 04:05:16;;;;;;;3.55;2.05;;;;;;;;;;6187078;23;20026;-84
2022/10/19 04:07:46;;;;;;;2.90;1.77;;;;;;;;;;6186899;23;20049;-84
2022/10/19 04:10:18;;;;;;;3.00;1.70;;;;;;;;;;6188876;23;20025;-84
2022/10/19 04:12:54;;;;;;;10.57;2.30;;;;;;;;;;6185643;23;20030;-85
2022/10/19 04:15:46;;;;;;;;;;;;;;;;;;;;;
2022/10/19 04:18:42;;;;;;;;;;;;;;;;;;;;;
2022/10/19 04:21:28;;;;;;;2.70;1.85;;;;;;;;;;6187061;23;20021;-85
2022/10/19 04:24:10;;;;;;;5.22;2.60;;;;;;;;;;6160474;23;20033;-85
2022/10/19 04:26:42;;;;;;;4.68;2.13;;;;;;;;;;6185620;23;20166;-85
2022/10/19 04:29:10;;;;;;;2.90;1.77;;;;;;;;;;6186059;23;20033;-86
2022/10/19 04:31:38;;;;;;;2.20;1.50;;;;;;;;;;6184828;23;20036;-83
2022/10/19 04:34:12;;;;;;;5.10;2.03;;;;;;;;;;6161167;23;20018;-83
2022/10/19 04:36:58;;;;;;;3.05;1.98;;;;;;;;;;6179764;23;20757;-84
2022/10/19 04:39:38;;;;;;;3.78;1.67;;;;;;;;;;6161843;23;20484;-83
2022/10/19 04:42:07;;;;;;;1.50;1.35;;;;;;;;;;6161816;23;20099;-83
2022/10/19 04:44:39;;;;;;;3.22;2.08;;;;;;;;;;6186220;23;20030;-83
2022/10/19 04:47:10;;;;;;;4.45;2.38;;;;;;;;;;6186408;23;20453;-83
2022/10/19 04:49:41;;;;;;;2.90;1.77;;;;;;;;;;6186570;23;20073;-85
2022/10/19 04:52:28;;;;;;;2.75;2.28;;;;;;;;;;6184293;23;20025;-83
2022/10/19 04:55:08;;;;;;;4.20;2.50;;;;;;;;;;6184766;23;20045;-83
2022/10/19 04:58:01;;;;;;;2.55;1.75;;;;;;;;;;6185909;23;20108;-82
2022/10/19 05:00:29;;;;;;;1.80;1.42;;;;;;;;;;6186534;23;20025;-83
2022/10/19 05:02:58;;;;;;;3.47;1.90;;;;;;;;;;6188196;23;20044;-83
2022/10/19 05:05:32;;;;;;;5.05;2.53;;;;;;;;;;6188057;23;20488;-83
2022/10/19 05:08:17;;;;;;;4.40;2.00;;;;;;;;;;6093546;23;20583;-84
2022/10/19 05:10:46;;;;;;;4.28;2.28;;;;;;;;;;6093168;23;20090;-83
2022/10/19 05:13:18;;;;;;;3.53;2.03;;;;;;;;;;6156559;23;20021;-83
2022/10/19 05:16:15;;;;;;;2.03;1.60;;;;;;;;;;6184259;23;20823;-86
2022/10/19 05:18:58;;;;;;;2.00;1.60;;;;;;;;;;6164570;23;20460;-86
2022/10/19 05:21:40;;;;;;;2.60;1.60;;;;;;;;;;6118857;23;20091;-86
2022/10/19 05:24:12;;;;;;;2.63;1.98;;;;;;;;;;6185992;23;20413;-86
2022/10/19 05:26:59;;;;;;;2.50;1.67;;;;;;;;;;6184768;23;20055;-84
2022/10/19 05:29:45;;;;;;;6.03;2.00;;;;;;;;;;6183946;23;20482;-83
2022/10/19 05:32:16;;;;;;;4.80;1.73;;;;;;;;;;6184573;23;20583;-83
2022/10/19 05:34:58;;;;;;;6.80;1.80;;;;;;;;;;6182534;23;20036;-84
2022/10/19 05:37:35;;;;;;;8.00;2.00;;;;;;;;;;6185929;23;20037;-84
2022/10/19 05:40:30;;;;;;;8.05;2.45;;;;;;;;;;6183192;23;20049;-84
2022/10/19 05:43:16;;;;;;;5.95;3.03;;;;;;;;;;6167568;23;20025;-84
2022/10/19 05:45:52;;;;;;;4.60;2.25;;;;;;;;;;6185140;23;20934;-86
2022/10/19 05:48:22;;;;;;;5.63;2.53;;;;;;;;;;6183938;23;20036;-83
2022/10/19 05:51:00;;;;;;;3.95;1.95;;;;;;;;;;6185255;23;20025;-83
2022/10/19 05:53:30;;;;;;;2.15;1.77;;;;;;;;;;6178214;23;20706;-86
2022/10/19 05:56:03;;;;;;;4.28;2.30;;;;;;;;;;6184867;23;20076;-83
2022/10/19 05:58:32;;;;;;;3.28;1.90;;;;;;;;;;6187638;23;20010;-86
2022/10/19 06:01:00;;;;;;;2.63;1.73;;;;;;;;;;6186780;23;20018;-83
2022/10/19 06:03:41;;;;;;;2.95;1.90;;;;;;;;;;6185532;23;20061;-83
2022/10/19 06:06:12;;;;;;;4.18;2.38;;;;;;;;;;6185272;23;20654;-83
2022/10/19 06:08:46;;;;;;;3.83;2.13;;;;;;;;;;6181741;23;20029;-83
2022/10/19 06:11:26;;;;;;;2.65;1.85;;;;;;;;;;6182175;23;20033;-83
2022/10/19 06:14:03;;;;;;;5.35;2.00;;;;;;;;;;6186944;23;20036;-84
2022/10/19 06:16:34;;;;;;;5.82;1.98;;;;;;;;;;6186262;23;20405;-83
2022/10/19 06:19:01;;;;;;;3.53;2.00;;;;;;;;;;6186061;23;20084;-83
2022/10/19 06:21:29;;;;;;;6.25;2.25;;;;;;;;;;6186636;23;20096;-85
2022/10/19 06:24:02;;;;;;;3.72;1.85;;;;;;;;;;6190059;23;20081;-86
2022/10/19 06:26:34;;;;;;;2.83;1.73;;;;;;;;;;6169056;23;20076;-83
2022/10/19 06:29:02;;;;;;;6.70;2.65;;;;;;;;;;6186699;23;20033;-83
2022/10/19 06:31:44;;;;;;;;;;;;;;;;;;;;;
2022/10/19 06:34:13;;;;;;;3.35;2.15;;;;;;;;;;6194581;23;20072;-83
2022/10/19 06:36:52;;;;;;;4.57;2.55;;;;;;;;;;6160497;23;20036;-83
2022/10/19 06:39:27;;;;;;;4.28;2.38;;;;;;;;;;6187625;23;20057;-83
2022/10/19 06:42:01;;;;;;;3.53;2.30;;;;;;;;;;6185357;23;20028;-85
2022/10/19 06:44:47;;;;;;;3.72;2.28;;;;;;;;;;6190199;23;20032;-83
2022/10/19 06:47:36;;;;;;;6.90;2.22;;;;;;;;;;6187892;23;20029;-86
2022/10/19 06:50:05;;;;;;;8.00;2.65;;;;;;;;;;6189184;23;20306;-85
2022/10/19 06:52:40;;;;;;;4.30;2.83;;;;;;;;;;6186902;23;20022;-85
2022/10/19 06:55:24;;;;;;;4.45;2.53;;;;;;;;;;6123253;23;20365;-84
2022/10/19 06:57:52;;;;;;;4.30;3.10;;;;;;;;;;6187305;23;20092;-85
2022/10/19 07:00:22;;;;;;;5.35;2.20;;;;;;;;;;6187780;23;20029;-83
2022/10/19 07:02:55;;;;;;;5.18;2.55;;;;;;;;;;6187844;23;20017;-83
2022/10/19 07:05:27;;;;;;;7.38;2.50;;;;;;;;;;6185612;23;20464;-85
2022/10/19 07:07:57;;;;;;;4.10;2.60;;;;;;;;;;6188189;23;20018;-83
2022/10/19 07:10:35;;;;;;;2.97;2.20;;;;;;;;;;6187754;23;20055;-85
2022/10/19 07:13:06;;;;;;;3.50;2.20;;;;;;;;;;6187750;23;20021;-85
2022/10/19 07:15:36;;;;;;;2.90;1.75;;;;;;;;;;6161756;23;20084;-83
2022/10/19 07:18:04;;;;;;;3.70;2.25;;;;;;;;;;6186391;23;20457;-85
2022/10/19 07:20:37;;;;;;;5.30;2.85;;;;;;;;;;6161987;23;20020;-84
2022/10/19 07:23:07;;;;;;;3.22;2.15;;;;;;;;;;6159677;23;20026;-85
2022/10/19 07:25:45;;;;;;;3.80;1.85;;;;;;;;;;6133101;23;20034;-85
2022/10/19 07:28:15;;;;;;;4.05;2.47;;;;;;;;;;6158513;23;20025;-85
2022/10/19 07:30:42;;;;;;;3.78;2.05;;;;;;;;;;6158462;23;20014;-85
2022/10/19 07:33:10;;;;;;;2.05;1.48;;;;;;;;;;6157760;23;20427;-85
2022/10/19 07:35:40;;;;;;;8.82;2.50;;;;;;;;;;6156454;23;20026;-86
2022/10/19 07:38:07;;;;;;;5.80;2.63;;;;;;;;;;6150584;23;20057;-85
2022/10/19 07:40:48;;;;;;;5.43;2.67;;;;;;;;;;6154121;23;20066;-85
2022/10/19 07:43:22;;;;;;;9.25;4.00;;;;;;;;;;6158818;23;20040;-85
2022/10/19 07:45:49;;;;;;;4.38;2.40;;;;;;;;;;6154680;23;20615;-85
2022/10/19 07:48:17;;;;;;;5.35;2.78;;;;;;;;;;6157762;23;20104;-86
2022/10/19 07:50:47;;;;;;;3.85;2.55;;;;;;;;;;6155510;23;20871;-85
2022/10/19 07:53:14;;;;;;;3.63;2.45;;;;;;;;;;6130622;23;20030;-85
2022/10/19 07:55:46;;;;;;;4.47;2.53;;;;;;;;;;6157120;23;20030;-85
2022/10/19 07:58:15;;;;;;;5.30;3.25;;;;;;;;;;6157096;23;20058;-85
2022/10/19 08:00:46;;;;;;;6.10;3.13;;;;;;;;;;6155334;23;20473;-85
2022/10/19 08:03:13;;;;;;;3.25;2.13;;;;;;;;;;6156609;23;20017;-86
2022/10/19 08:06:09;;;;;;;7.38;3.72;;;;;;;;;;6161181;23;20525;-86
2022/10/19 08:08:37;;;;;;;10.80;4.68;;;;;;;;;;6132749;23;20030;-85
2022/10/19 08:11:13;;;;;;;5.90;3.58;;;;;;;;;;6162125;23;20074;-85
2022/10/19 08:14:15;;;;;;;16.77;4.22;;;;;;;;;;6160720;23;20113;-85
2022/10/19 08:16:38;;;;;;;7.68;3.35;;;;;;;;;;6136571;23;20236;-85
2022/10/19 08:19:27;;;;;;;6.40;3.25;;;;;;;;;;6160619;23;20025;-85
2022/10/19 08:21:55;;;;;;;5.60;2.97;;;;;;;;;;6160906;23;20061;-85
2022/10/19 08:27:30;;;;;;;4.80;3.20;;;;;;;;;;6183950;23;20057;-85
2022/10/19 08:30:39;;;;;;;7.97;3.15;;;;;;;;;;6181724;23;20097;-85
2022/10/19 08:33:15;;;;;;;;;;;;;;;;;;6187127;23;20020;-85
2022/10/19 08:36:00;;;;;;;9.23;2.00;;;;;;;;;;6184785;23;19974;-85
2022/10/19 08:38:40;;;;;;;9.83;2.97;;;;;;;;;;6186832;23;20029;-85
2022/10/19 08:41:29;;;;;;;3.58;2.10;;;;;;;;;;6187700;23;20025;-85
2022/10/19 08:44:40;;;;;;;13.93;2.60;;;;;;;;;;6187715;23;20029;-85
2022/10/19 08:47:31;;;;;;;3.10;1.85;;;;;;;;;;6184300;23;20101;-85
2022/10/19 08:50:26;;;;;;;3.45;2.00;;;;;;;;;;6189413;23;20022;-85
2022/10/19 08:53:40;;;;;;;8.00;3.13;;;;;;;;;;6180761;23;20025;-85
2022/10/19 08:56:25;;;;;;;6.30;2.53;;;;;;;;;;6124306;23;20057;-85
2022/10/19 08:59:18;;;;;;;11.65;2.90;;;;;;;;;;6187884;23;20851;-85
2022/10/19 09:01:57;;;;;;;12.18;2.55;;;;;;;;;;6190361;23;20022;-84
2022/10/19 09:04:30;;;;;;;5.72;2.60;;;;;;;;;;6188904;23;20030;-85
2022/10/19 09:07:07;;;;;;;4.47;2.22;;;;;;;;;;6189498;23;20017;-85
2022/10/19 09:09:51;;;;;;;7.15;2.47;;;;;;;;;;6187113;23;20417;-85
2022/10/19 09:12:57;;;;;;;4.93;2.22;;;;;;;;;;6185946;23;20058;-84
2022/10/19 09:15:50;;;;;;;9.23;2.83;;;;;;;;;;6186149;23;20461;-84
2022/10/19 09:18:23;;;;;;;5.82;2.40;;;;;;;;;;6186517;23;20088;-84
2022/10/19 09:20:52;;;;;;;4.03;2.65;;;;;;;;;;6188081;23;20733;-85
2022/10/19 09:23:36;;;;;;;5.00;2.45;;;;;;;;;;6184518;23;20033;-85
2022/10/19 09:26:24;;;;;;;9.32;3.03;;;;;;;;;;6172333;23;20022;-84
2022/10/19 09:28:51;;;;;;;;;;;;;;;;;;6190354;23;20484;-82
2022/10/19 09:31:22;;;;;;;5.40;2.17;;;;;;;;;;6193902;23;43530;-84
2022/10/19 09:34:06;;;;;;;6.97;2.08;;;;;;;;;;6189245;23;20088;-85
2022/10/19 09:36:59;;;;;;;4.68;2.22;;;;;;;;;;6192569;23;20029;-85
2022/10/19 09:39:28;;;;;;;2.97;1.50;;;;;;;;;;6196244;23;20673;-85
2022/10/19 09:42:17;;;;;;;9.35;2.83;;;;;;;;;;6190864;23;20021;-84
2022/10/19 09:44:49;;;;;;;6.25;2.30;;;;;;;;;;6192845;23;20029;-85
2022/10/19 09:47:31;;;;;;;5.90;2.45;;;;;;;;;;6193368;23;20025;-84
2022/10/19 09:50:31;;;;;;;2.67;1.67;;;;;;;;;;6164544;23;20034;-84
2022/10/19 09:53:37;;;;;;;2.47;1.48;;;;;;;;;;6183984;23;20033;-84
2022/10/19 09:56:09;;;;;;;3.40;1.77;;;;;;;;;;6187616;23;20037;-84
2022/10/19 09:58:38;;;;;;;7.72;2.10;;;;;;;;;;6189316;23;20022;-84
2022/10/19 10:01:27;;;;;;;5.43;1.65;;;;;;;;;;6187459;23;20732;-84
2022/10/19 10:04:29;;;;;;;4.20;1.50;;;;;;;;;;6187810;23;20022;-84
2022/10/19 10:07:33;;;;;;;4.85;1.40;;;;;;;;;;6158925;23;20033;-84
2022/10/19 10:10:29;;;;;;;4.13;1.25;;;;;;;;;;6192148;23;20022;-84
2022/10/19 10:13:35;;;;;;;4.65;1.20;;;;;;;;;;6142418;23;20025;-84
2022/10/19 10:16:29;;;;;;;5.25;1.50;;;;;;;;;;6166913;23;20047;-84
2022/10/19 10:19:20;;;;;;;6.93;1.35;;;;;;;;;;6189440;23;20780;-84
2022/10/19 10:22:17;;;;;;;;;;;;;;;;;;6191704;23;20017;-84
2022/10/19 10:28:13;;;;;;;5.55;1.15;;;;;;;;;;6188361;23;20021;-84
2022/10/19 10:30:44;;;;;;;3.55;1.13;;;;;;;;;;6188617;23;20120;-84
2022/10/19 10:33:18;;;;;;;4.10;1.20;;;;;;;;;;6182282;23;20116;-84
2022/10/19 10:36:25;;;;;;;2.00;0.85;;;;;;;;;;6182965;23;20025;-85
2022/10/19 10:38:58;;;;;;;3.70;1.20;;;;;;;;;;6184185;23;20077;-85
2022/10/19 10:41:39;;;;;;;4.35;1.00;;;;;;;;;;6184325;23;20045;-84
2022/10/19 10:47:19;;;;;;;2.90;1.00;;;;;;;;;;6184648;23;19925;-84
2022/10/19 10:50:15;;;;;;;13.32;1.58;;;;;;;;;;6147196;23;20500;-84
2022/10/19 10:53:33;;;;;;;3.13;0.70;;;;;;;;;;6186587;23;20026;-84
2022/10/19 10:56:33;;;;;;;10.68;1.65;;;;;;;;;;5952807;24;20032;-83
2022/10/19 10:59:05;;;;;;;9.02;1.63;;;;;;;;;;5948132;24;20747;-84
2022/10/19 11:02:19;;;;;;;1.77;0.77;;;;;;;;;;5947733;24;20037;-84
2022/10/19 11:04:59;;;;;;;3.22;0.98;;;;;;;;;;5951783;23;20025;-84
2022/10/19 11:07:46;;;;;;;2.97;0.90;;;;;;;;;;5940034;24;20056;-84
2022/10/19 11:10:44;;;;;;;4.93;1.40;;;;;;;;;;5952920;24;20065;-84
2022/10/19 11:13:35;;;;;;;4.95;1.05;;;;;;;;;;5904936;24;20029;-84
2022/10/19 11:16:21;;;;;;;4.15;1.05;;;;;;;;;;5951283;24;20029;-84
2022/10/19 11:19:14;;;;;;;3.92;1.52;;;;;;;;;;5953553;24;20853;-84
2022/10/19 11:22:06;;;;;;;2.17;0.80;;;;;;;;;;5951389;23;20505;-84
2022/10/19 11:24:58;;;;;;;3.15;0.98;;;;;;;;;;5951957;24;20803;-85
2022/10/19 11:27:34;;;;;;;5.68;1.25;;;;;;;;;;6045248;23;20027;-84
2022/10/19 11:30:11;;;;;;;2.50;0.73;;;;;;;;;;6066619;23;20688;-84
2022/10/19 11:33:01;;;;;;;3.47;0.90;;;;;;;;;;6079311;23;20115;-84
2022/10/19 11:35:54;;;;;;;3.88;1.15;;;;;;;;;;6167426;23;20108;-84
2022/10/19 11:38:41;;;;;;;2.95;0.90;;;;;;;;;;6159344;23;20030;-84
2022/10/19 11:41:19;;;;;;;3.45;1.00;;;;;;;;;;6185282;23;20029;-85
2022/10/19 11:44:12;;;;;;;4.45;1.10;;;;;;;;;;6160576;23;20775;-85
2022/10/19 11:46:58;;;;;;;4.28;1.00;;;;;;;;;;6187241;23;20025;-84
2022/10/19 11:50:04;;;;;;;3.80;1.02;;;;;;;;;;6122522;23;20017;-84
2022/10/19 11:56:08;;;;;;;1.30;0.70;;;;;;;;;;6183471;23;20912;-84
2022/10/19 11:58:54;;;;;;;4.03;1.15;;;;;;;;;;6180721;23;20025;-84
2022/10/19 12:05:14;;;;;;;5.82;1.52;;;;;;;;;;6036284;23;20039;-84
2022/10/19 12:07:59;;;;;;;5.25;1.00;;;;;;;;;;6161005;23;20503;-84
2022/10/19 12:14:17;;;;;;;6.32;1.30;;;;;;;;;;6109619;23;20022;-84
2022/10/19 12:17:17;;;;;;;3.45;1.30;;;;;;;;;;6120290;23;20023;-85
2022/10/19 12:20:06;;;;;;;1.67;0.95;;;;;;;;;;6114695;23;20073;-84
2022/10/19 12:22:57;;;;;;;3.35;1.10;;;;;;;;;;6108088;23;20204;-84
2022/10/19 12:25:36;;;;;;;6.18;1.40;;;;;;;;;;6148726;23;20061;-84
2022/10/19 12:28:34;;;;;;;3.35;1.20;;;;;;;;;;6151041;23;20022;-85
2022/10/19 12:31:18;;;;;;;4.95;1.27;;;;;;;;;;6151759;23;20081;-85
2022/10/19 12:34:08;;;;;;;2.55;1.17;;;;;;;;;;6126350;23;20077;-85
2022/10/19 12:36:49;;;;;;;4.85;1.25;;;;;;;;;;6141738;23;20022;-85
2022/10/19 12:39:40;;;;;;;7.63;1.10;;;;;;;;;;6153115;23;20077;-85
2022/10/19 12:42:29;;;;;;;2.80;0.95;;;;;;;;;;6157116;23;20422;-85
2022/10/19 12:45:41;;;;;;;3.13;1.02;;;;;;;;;;6106584;23;20041;-85
2022/10/19 12:48:37;;;;;;;7.15;1.30;;;;;;;;;;6156114;23;20025;-85
2022/10/19 12:51:19;;;;;;;4.80;1.50;;;;;;;;;;6164981;23;20077;-85
2022/10/19 12:53:48;;;;;;;4.78;1.50;;;;;;;;;;6185521;23;20036;-85
2022/10/19 12:56:15;;;;;;;7.85;1.33;;;;;;;;;;6183734;23;20559;-84
2022/10/19 12:58:44;;;;;;;3.05;0.98;;;;;;;;;;6183156;23;20025;-85
2022/10/19 13:01:53;;;;;;;1.05;0.85;;;;;;;;;;6178031;23;20087;-85
2022/10/19 13:04:40;;;;;;;4.00;1.30;;;;;;;;;;6140849;23;20110;-86
2022/10/19 13:07:17;;;;;;;3.72;1.30;;;;;;;;;;6183509;23;20037;-86
2022/10/19 13:09:57;;;;;;;6.97;2.40;;;;;;;;;;6185215;23;20332;-84
2022/10/19 13:12:40;;;;;;;3.78;1.13;;;;;;;;;;6182330;23;20479;-85
2022/10/19 13:15:26;;;;;;;5.43;1.50;;;;;;;;;;6182860;23;21488;-85
2022/10/19 13:18:37;;;;;;;6.03;1.33;;;;;;;;;;6182933;23;20026;-84
2022/10/19 13:25:03;;;;;;;5.93;1.10;;;;;;;;;;6149727;23;20018;-83
2022/10/19 13:27:49;;;;;;;2.42;1.20;;;;;;;;;;6149266;23;20030;-84
2022/10/19 13:30:38;;;;;;;5.93;1.33;;;;;;;;;;6149783;23;20022;-83
2022/10/19 13:33:43;;;;;;;4.10;1.30;;;;;;;;;;6120244;23;20525;-84
2022/10/19 13:36:16;;;;;;;5.18;1.23;;;;;;;;;;6147026;23;20433;-84
2022/10/19 13:38:55;;;;;;;4.95;1.23;;;;;;;;;;6147036;23;20014;-84
2022/10/19 13:41:42;;;;;;;4.18;1.20;;;;;;;;;;6147830;23;20030;-84
2022/10/19 13:44:44;;;;;;;3.75;0.88;;;;;;;;;;6142460;23;20022;-83
2022/10/19 13:47:15;;;;;;;4.07;1.02;;;;;;;;;;6147548;23;20903;-84
2022/10/19 13:49:54;;;;;;;6.13;1.30;;;;;;;;;;6146296;23;20037;-84
2022/10/19 13:52:43;;;;;;;4.00;1.08;;;;;;;;;;6145918;23;20321;-83
2022/10/19 13:55:20;;;;;;;2.40;1.25;;;;;;;;;;6146514;23;20030;-83
2022/10/19 13:58:30;;;;;;;4.13;1.15;;;;;;;;;;6109356;23;20036;-83
2022/10/19 14:01:17;;;;;;;1.88;0.85;;;;;;;;;;6168682;23;20029;-84
2022/10/19 14:03:44;;;;;;;;;;;;;;;;;;6183106;23;20086;-84
2022/10/19 14:06:31;;;;;;;1.05;1.02;;;;;;;;;;6180888;23;44224;-84
2022/10/19 14:09:19;;;;;;;4.70;0.88;;;;;;;;;;6180472;23;20029;-83
2022/10/19 14:12:15;;;;;;;1.55;0.70;;;;;;;;;;6201808;23;20049;-83
2022/10/19 14:14:57;;;;;;;14.77;1.23;;;;;;;;;;6181360;23;20021;-84
2022/10/19 14:17:32;;;;;;;3.40;0.95;;;;;;;;;;6179957;23;20057;-84
2022/10/19 14:20:27;;;;;;;3.75;1.20;;;;;;;;;;6142354;23;20472;-84
2022/10/19 14:22:54;;;;;;;4.93;1.23;;;;;;;;;;6178568;23;20041;-84
2022/10/19 14:25:50;;;;;;;9.63;1.10;;;;;;;;;;6178591;23;20033;-84
2022/10/19 14:28:18;;;;;;;5.95;1.20;;;;;;;;;;6152610;23;20049;-84
2022/10/19 14:30:56;;;;;;;2.90;1.50;;;;;;;;;;6178571;23;20036;-83
2022/10/19 14:34:02;;;;;;;10.35;1.20;;;;;;;;;;6147061;23;20270;-83
2022/10/19 14:39:39;;;;;;;3.45;0.77;;;;;;;;;;6153862;23;20025;-83
2022/10/19 14:42:15;;;;;;;5.00;1.15;;;;;;;;;;6180258;23;20077;-84
2022/10/19 14:44:43;;;;;;;2.25;0.93;;;;;;;;;;6180110;23;20105;-84
2022/10/19 14:47:29;;;;;;;2.70;0.95;;;;;;;;;;6181609;23;20026;-83
2022/10/19 14:49:59;;;;;;;6.05;1.40;;;;;;;;;;6180104;23;20725;-84
2022/10/19 14:52:45;;;;;;;3.13;0.93;;;;;;;;;;6178005;23;20473;-84
2022/10/19 14:55:18;;;;;;;3.35;1.15;;;;;;;;;;6179561;23;20032;-84
2022/10/19 14:58:02;;;;;;;7.07;1.60;;;;;;;;;;6150009;23;20526;-83
2022/10/19 15:01:12;;;;;;;3.53;0.80;;;;;;;;;;6159263;23;20035;-84
2022/10/19 15:03:46;;;;;;;4.88;0.98;;;;;;;;;;6178237;23;20076;-83
2022/10/19 15:06:24;;;;;;;6.75;0.93;;;;;;;;;;6180414;23;20017;-83
2022/10/19 15:09:18;;;;;;;6.75;1.27;;;;;;;;;;6178174;23;20056;-83
2022/10/19 15:12:29;;;;;;;6.43;1.40;;;;;;;;;;6183582;23;20027;-83
2022/10/19 15:15:06;;;;;;;4.72;1.05;;;;;;;;;;6182315;23;20036;-83
2022/10/19 15:20:47;;;;;;;1.90;0.88;;;;;;;;;;6178623;23;20029;-83
2022/10/19 15:24:07;;;;;;;0.70;0.70;;;;;;;;;;6152061;23;20034;-84
2022/10/19 15:26:52;;;;;;;4.00;0.93;;;;;;;;;;6010894;23;20361;-83
2022/10/19 15:30:00;;;;;;;4.10;1.23;;;;;;;;;;5990944;23;20065;-83
2022/10/19 15:32:38;;;;;;;2.15;0.80;;;;;;;;;;6027787;23;20032;-83
2022/10/19 15:35:09;;;;;;;1.08;0.82;;;;;;;;;;6031950;23;20046;-84
2022/10/19 15:37:39;;;;;;;3.47;1.13;;;;;;;;;;6037401;23;20460;-83
2022/10/19 15:40:22;;;;;;;11.75;0.98;;;;;;;;;;6038211;23;20320;-83
2022/10/19 15:42:55;;;;;;;5.53;1.30;;;;;;;;;;6010481;23;20349;-83
2022/10/19 15:45:37;;;;;;;6.40;1.30;;;;;;;;;;6024308;23;20087;-83
2022/10/19 15:48:10;;;;;;;6.20;1.60;;;;;;;;;;6037691;23;20060;-84
2022/10/19 15:50:39;;;;;;;1.73;1.02;;;;;;;;;;6030205;23;20015;-83
2022/10/19 15:53:14;;;;;;;5.03;1.40;;;;;;;;;;6033635;23;20032;-84
2022/10/19 15:56:08;;;;;;;2.90;1.10;;;;;;;;;;6029511;23;20056;-83
2022/10/19 15:58:41;;;;;;;7.88;1.42;;;;;;;;;;6029965;23;20023;-84
2022/10/19 16:01:21;;;;;;;4.13;1.33;;;;;;;;;;6036362;23;20036;-83
2022/10/19 16:03:49;;;;;;;1.88;1.17;;;;;;;;;;6124773;23;20101;-83
2022/10/19 16:06:19;;;;;;;4.32;1.23;;;;;;;;;;6152225;23;20025;-84
2022/10/19 16:08:47;;;;;;;4.10;1.35;;;;;;;;;;6150330;23;20030;-84
2022/10/19 16:11:15;;;;;;;1.20;1.10;;;;;;;;;;6148739;23;20084;-83
2022/10/19 16:13:50;;;;;;;4.50;1.50;;;;;;;;;;6150632;23;20334;-84
2022/10/19 16:16:33;;;;;;;4.95;1.50;;;;;;;;;;6154457;23;20483;-83
2022/10/19 16:19:03;;;;;;;7.95;1.83;;;;;;;;;;6148384;23;20022;-83
2022/10/19 16:21:42;;;;;;;6.28;1.60;;;;;;;;;;6157096;23;20034;-83
2022/10/19 16:27:20;;;;;;;9.32;1.70;;;;;;;;;;6174340;23;20026;-83
2022/10/19 16:30:06;;;;;;;4.78;2.05;;;;;;;;;;6144987;23;20508;-83
2022/10/19 16:32:52;;;;;;;5.18;1.55;;;;;;;;;;6069016;23;20022;-83
2022/10/19 16:35:23;;;;;;;6.95;1.92;;;;;;;;;;6181507;23;20025;-83
2022/10/19 16:37:57;;;;;;;5.43;1.95;;;;;;;;;;6184064;23;20025;-83
2022/10/19 16:40:25;;;;;;;8.20;2.03;;;;;;;;;;6185598;23;20033;-83
2022/10/19 16:43:12;;;;;;;11.32;1.75;;;;;;;;;;6185865;23;20041;-83
2022/10/19 16:46:22;;;;;;;6.82;2.05;;;;;;;;;;6186919;23;20028;-83